Sugar Land, TX (77478)

4:10 AM CST on February 14, 2016 (GMT -0600)
Sugar Mill | | Change Station
CLOSE
Current Station
Personal Weather Station
Location: Sugar Land, TX
Elevation: 108 ft
Nearby Weather Stations

Elev 108 ft 29.63 °N, 95.63 °W | Updated 31 seconds ago

Overcast
Overcast
57.6 °F
Feels Like 57.6 °F
N
0.0
Wind Variable Wind from NE
Gusts 1.0 mph

Today
High -- | Low -- °F
--% Chance of Precip.
Yesterday
High -- | Low -- °F
Precip. -- in
Pressure 30.11 in
Visibility 5.0 miles
Clouds Overcast 300 ft
Dew Point 57 °F
Humidity 97%
Rainfall 0.00 in
Snow Depth Not available.
7:03 AM 6:10 PM
Waxing Crescent, 40% visible
METAR KSGR 140953Z AUTO 15005KT 5SM BR OVC003 14/13 A3010 RMK AO2 SLP194 T01440133
Pressure 30.11 in
Visibility 5.0 miles
Clouds Overcast 300 ft
Dew Point 57 °F
Humidity 97%
Rainfall 0.00 in
Snow Depth Not available.
7:03 AM 6:10 PM
Waxing Crescent, 40% visible
METAR KSGR 140953Z AUTO 15005KT 5SM BR OVC003 14/13 A3010 RMK AO2 SLP194 T01440133

10-Day Weather Forecast

Almanac

Astronomy

Feb. 14, 2016 Rise Set
Actual Time
Civil Twilight
Nautical Twilight
Astronomical Twilight
Moon
Length of Visible Light
Length of Day
Tomorrow will be .
, % of the Moon is Illuminated

Today's Extremes

State Highs State Lows

Community

WunderPhotos

Upload Photos

1,892,761 photos uploaded!

WunderBlog® & News

Nearby

Air Quality

  Air Quality AQ Index Pollutant
Not available.

Snow Depth

Station Depth Elevation

Earthquake Activity

City Distance Mag. Time & Date
Minimum magnitude displayed is 2.5.

Coastal Water Temperatures

Place Temperature

Stations

Nearby Weather Stations

Station Location Temp. Windchill Dew Point Humidity Wind Precip. Elev Updated Type
                   

Watches & Warnings

There are currently no watches in effect.